Time;durP1;ratioP1;P1;durP2;ratioP2;P2;SDS_P1;SDS_P2;PMS_P1;PMS_P2;Temp;Humidity;BMP_temperature;BMP_pressure;BME280_temperature;BME280_humidity;BME280_pressure;Samples;Min_cycle;Max_cycle;Signal;HPM_P1;HPM_P2
2024/03/19 00:02:15;;;;;;;7.15;5.05;;;7.70;75.90;;;;;;5104857;28;20205;-61
2024/03/19 00:04:42;;;;;;;7.13;4.35;;;7.80;76.10;;;;;;5103745;28;20674;-62
2024/03/19 00:07:09;;;;;;;6.50;4.90;;;7.80;76.10;;;;;;5102903;28;20204;-62
2024/03/19 00:09:37;;;;;;;6.82;5.18;;;7.80;76.00;;;;;;5104008;28;20250;-60
2024/03/19 00:12:04;;;;;;;5.05;4.35;;;7.70;75.80;;;;;;5098875;28;20206;-62
2024/03/19 00:14:31;;;;;;;5.43;4.93;;;7.80;76.10;;;;;;5098581;28;20303;-63
2024/03/19 00:16:57;;;;;;;8.55;5.15;;;7.80;76.20;;;;;;5098166;28;20196;-62
2024/03/19 00:19:24;;;;;;;7.05;5.15;;;7.80;76.20;;;;;;5099674;28;20694;-62
2024/03/19 00:21:51;;;;;;;6.72;5.20;;;7.80;76.30;;;;;;5101182;28;20204;-63
2024/03/19 00:24:19;;;;;;;6.03;4.60;;;7.80;76.30;;;;;;5095263;28;20196;-62
2024/03/19 00:26:47;;;;;;;5.80;4.45;;;7.80;76.30;;;;;;5094771;28;20277;-62
2024/03/19 00:29:13;;;;;;;7.07;4.80;;;7.80;76.30;;;;;;5096548;28;20220;-62
2024/03/19 00:31:40;;;;;;;6.25;4.88;;;7.80;76.20;;;;;;5098423;28;20211;-62
2024/03/19 00:34:08;;;;;;;6.65;4.75;;;7.90;76.30;;;;;;5098387;28;20585;-62
2024/03/19 00:36:35;;;;;;;5.70;5.00;;;7.90;76.10;;;;;;5098199;28;20261;-63
2024/03/19 00:39:09;;;;;;;4.97;4.47;;;7.80;76.00;;;;;;5098582;28;20228;-61
2024/03/19 00:41:36;;;;;;;5.97;4.85;;;7.80;76.10;;;;;;5098947;28;20589;-62
2024/03/19 00:44:05;;;;;;;5.57;5.07;;;7.80;76.30;;;;;;5098098;28;20204;-62
2024/03/19 00:46:32;;;;;;;6.70;4.63;;;7.70;76.40;;;;;;5098296;28;20202;-62
2024/03/19 00:48:59;;;;;;;5.55;4.75;;;7.70;76.50;;;;;;5098180;28;20298;-62
2024/03/19 00:51:26;;;;;;;6.40;4.93;;;7.70;76.90;;;;;;5097684;28;20674;-62
2024/03/19 00:53:52;;;;;;;6.03;5.10;;;7.70;77.10;;;;;;5097796;28;20708;-62
2024/03/19 00:56:19;;;;;;;5.25;4.68;;;7.70;77.30;;;;;;5097755;28;20206;-64
2024/03/19 00:58:46;;;;;;;7.05;4.40;;;7.70;77.50;;;;;;5097958;28;20315;-62
2024/03/19 01:01:14;;;;;;;5.40;4.75;;;7.70;77.80;;;;;;5099759;28;20552;-62
2024/03/19 01:03:42;;;;;;;5.93;5.00;;;7.70;77.90;;;;;;5104946;28;20222;-63
2024/03/19 01:06:09;;;;;;;5.60;4.43;;;7.70;78.00;;;;;;5101393;28;20629;-61
2024/03/19 01:08:37;;;;;;;7.20;4.80;;;7.70;78.10;;;;;;5097991;28;20200;-62
2024/03/19 01:11:04;;;;;;;9.20;5.03;;;7.70;78.20;;;;;;5097460;28;20222;-62
2024/03/19 01:13:31;;;;;;;7.32;5.20;;;7.70;78.40;;;;;;5097080;28;20206;-62
2024/03/19 01:15:58;;;;;;;5.05;4.35;;;7.60;78.30;;;;;;5097431;28;20530;-62
2024/03/19 01:18:26;;;;;;;6.00;4.43;;;7.60;78.60;;;;;;5096880;28;20217;-63
2024/03/19 01:20:53;;;;;;;7.20;4.80;;;7.60;78.70;;;;;;5097055;28;20666;-62
2024/03/19 01:23:20;;;;;;;7.47;4.53;;;7.60;79.00;;;;;;5097262;28;20200;-62
2024/03/19 01:25:47;;;;;;;5.43;4.32;;;7.60;79.00;;;;;;5097484;28;20200;-62
2024/03/19 01:28:15;;;;;;;6.35;4.75;;;7.50;79.10;;;;;;5097582;28;20196;-62
2024/03/19 01:30:41;;;;;;;8.20;4.72;;;7.50;79.50;;;;;;5096914;28;20346;-62
2024/03/19 01:33:08;;;;;;;5.28;4.20;;;7.50;79.90;;;;;;5096948;28;20296;-62
2024/03/19 01:35:36;;;;;;;11.07;5.05;;;7.40;80.00;;;;;;5097982;28;20207;-61
2024/03/19 01:38:03;;;;;;;8.18;4.05;;;7.40;80.20;;;;;;5099610;28;20583;-62
2024/03/19 01:40:30;;;;;;;7.10;4.60;;;7.40;80.40;;;;;;5098593;28;20243;-61
2024/03/19 01:42:57;;;;;;;4.70;4.20;;;7.40;80.80;;;;;;5097647;28;20204;-62
2024/03/19 01:45:24;;;;;;;6.03;5.43;;;7.40;80.90;;;;;;5098819;28;20700;-62
2024/03/19 01:47:51;;;;;;;7.38;4.93;;;7.40;81.00;;;;;;5099431;28;20230;-62
2024/03/19 01:50:19;;;;;;;7.25;4.05;;;7.40;81.10;;;;;;5098652;28;20325;-62
2024/03/19 01:52:52;;;;;;;7.80;4.32;;;7.40;81.20;;;;;;5100863;28;20353;-62
2024/03/19 01:55:21;;;;;;;5.88;4.28;;;7.40;81.20;;;;;;5099883;28;20192;-62
2024/03/19 01:57:48;;;;;;;6.30;4.18;;;7.40;81.50;;;;;;5099159;28;20696;-62
2024/03/19 02:00:16;;;;;;;5.13;4.40;;;7.40;81.80;;;;;;5101352;28;20243;-61
2024/03/19 02:02:43;;;;;;;5.43;4.50;;;7.40;82.20;;;;;;5101537;28;20208;-62
2024/03/19 02:05:11;;;;;;;5.40;4.75;;;7.30;82.40;;;;;;5099552;28;20685;-63
2024/03/19 02:07:38;;;;;;;5.40;4.00;;;7.30;82.90;;;;;;5095867;28;20681;-61
2024/03/19 02:10:10;;;;;;;6.75;4.43;;;7.30;83.40;;;;;;5096354;28;20227;-63
2024/03/19 02:12:36;;;;;;;4.68;4.10;;;7.30;83.80;;;;;;5096226;28;20199;-62
2024/03/19 02:15:03;;;;;;;5.85;4.20;;;7.30;84.30;;;;;;5096043;28;20196;-62
2024/03/19 02:17:30;;;;;;;5.68;5.07;;;7.30;84.70;;;;;;5096092;28;20200;-62
2024/03/19 02:19:57;;;;;;;5.93;4.20;;;7.30;84.80;;;;;;5095548;28;20235;-63
2024/03/19 02:22:28;;;;;;;7.10;4.57;;;7.30;85.10;;;;;;5095716;28;20209;-61
2024/03/19 02:24:54;;;;;;;5.05;4.15;;;7.30;85.60;;;;;;5096020;28;20185;-62
2024/03/19 02:27:21;;;;;;;5.90;4.55;;;7.30;85.70;;;;;;5095718;28;20254;-62
2024/03/19 02:29:48;;;;;;;4.75;4.00;;;7.30;86.00;;;;;;5095492;28;20231;-62
2024/03/19 02:32:15;;;;;;;5.95;4.43;;;7.30;86.40;;;;;;5095635;28;20207;-61
2024/03/19 02:34:41;;;;;;;5.35;4.57;;;7.30;86.60;;;;;;5095279;28;20204;-61
2024/03/19 02:37:08;;;;;;;4.85;3.85;;;7.30;86.80;;;;;;5095467;28;20208;-62
2024/03/19 02:39:37;;;;;;;4.90;4.20;;;7.30;87.00;;;;;;5094864;28;20228;-63
2024/03/19 02:42:04;;;;;;;5.28;4.40;;;7.30;87.30;;;;;;5095293;28;20211;-62
2024/03/19 02:44:30;;;;;;;4.50;3.80;;;7.20;87.60;;;;;;5095029;28;20204;-62
2024/03/19 02:46:57;;;;;;;6.03;4.90;;;7.20;88.10;;;;;;5095389;28;20200;-62
2024/03/19 02:49:24;;;;;;;6.05;4.15;;;7.20;88.20;;;;;;5094914;28;20454;-62
2024/03/19 02:51:51;;;;;;;4.75;4.25;;;7.20;88.50;;;;;;5094252;28;20212;-62
2024/03/19 02:54:17;;;;;;;5.20;3.70;;;7.20;88.80;;;;;;5095093;28;20576;-62
2024/03/19 02:56:45;;;;;;;9.30;4.22;;;7.20;89.10;;;;;;5095195;28;20234;-63
2024/03/19 02:59:12;;;;;;;5.57;4.32;;;7.20;89.50;;;;;;5095306;28;20227;-62
2024/03/19 03:01:39;;;;;;;6.07;4.05;;;7.10;89.70;;;;;;5094666;28;20200;-61
2024/03/19 03:04:06;;;;;;;4.00;3.55;;;7.10;90.00;;;;;;5094439;28;20678;-63
2024/03/19 03:06:33;;;;;;;8.73;3.70;;;7.10;90.20;;;;;;5094752;28;20213;-61
2024/03/19 03:08:59;;;;;;;5.63;4.05;;;7.10;90.30;;;;;;5094614;28;20216;-62
2024/03/19 03:11:26;;;;;;;7.40;5.25;;;7.10;90.50;;;;;;5095334;28;20208;-62
2024/03/19 03:13:54;;;;;;;5.60;4.50;;;7.00;90.60;;;;;;5095234;28;20201;-62
2024/03/19 03:16:22;;;;;;;5.30;4.13;;;7.00;90.80;;;;;;5094855;28;20208;-62
2024/03/19 03:18:48;;;;;;;9.98;4.35;;;7.00;91.00;;;;;;5094540;28;20568;-62
2024/03/19 03:21:15;;;;;;;8.00;4.50;;;6.90;91.20;;;;;;5095531;28;20188;-62
2024/03/19 03:23:42;;;;;;;4.90;3.92;;;6.90;91.40;;;;;;5099556;28;20204;-61
2024/03/19 03:26:09;;;;;;;6.00;4.20;;;6.80;91.60;;;;;;5100912;28;20208;-62
2024/03/19 03:28:36;;;;;;;6.38;3.75;;;6.80;91.80;;;;;;5099732;28;20197;-62
2024/03/19 03:31:04;;;;;;;6.20;5.03;;;6.80;92.10;;;;;;5096555;28;20204;-62
2024/03/19 03:33:31;;;;;;;4.68;4.18;;;6.70;92.10;;;;;;5094352;28;20678;-62
2024/03/19 03:35:58;;;;;;;4.68;3.83;;;6.70;92.30;;;;;;5094119;28;20554;-62
2024/03/19 03:38:25;;;;;;;7.45;4.05;;;6.70;92.40;;;;;;5093773;28;20215;-62
2024/03/19 03:40:53;;;;;;;5.90;4.85;;;6.70;92.50;;;;;;5094089;28;20232;-62
2024/03/19 03:43:20;;;;;;;5.30;4.00;;;6.70;92.60;;;;;;5093734;28;20696;-63
2024/03/19 03:45:47;;;;;;;4.90;4.40;;;6.70;92.90;;;;;;5094084;28;20211;-62
2024/03/19 03:48:15;;;;;;;7.88;4.60;;;6.70;92.90;;;;;;5093622;28;20693;-62
2024/03/19 03:50:41;;;;;;;4.88;4.15;;;6.60;93.00;;;;;;5093768;28;20231;-62
2024/03/19 03:53:08;;;;;;;4.25;3.83;;;6.60;93.20;;;;;;5095699;28;20200;-62
2024/03/19 03:55:35;;;;;;;9.15;4.38;;;6.60;93.30;;;;;;5096349;28;20204;-62
2024/03/19 03:58:02;;;;;;;5.68;4.25;;;6.60;93.30;;;;;;5094603;28;20204;-62
2024/03/19 04:00:29;;;;;;;7.25;3.83;;;6.60;93.60;;;;;;5093460;28;20232;-61
2024/03/19 04:02:56;;;;;;;6.10;4.13;;;6.60;93.80;;;;;;5095685;28;20226;-62
2024/03/19 04:05:25;;;;;;;7.95;4.45;;;6.60;94.00;;;;;;5098937;28;20226;-62
2024/03/19 04:07:51;;;;;;;6.88;3.90;;;6.50;94.00;;;;;;5095331;28;20207;-62
2024/03/19 04:13:23;;;;;;;6.38;4.50;;;6.50;94.20;;;;;;5092207;28;20545;-63
2024/03/19 04:15:50;;;;;;;4.50;4.05;;;6.50;94.20;;;;;;5091718;28;20204;-63
2024/03/19 04:18:17;;;;;;;8.25;4.90;;;6.50;94.20;;;;;;5091659;28;20200;-62
2024/03/19 04:20:44;;;;;;;5.20;4.40;;;6.50;94.40;;;;;;5091453;28;20216;-63
2024/03/19 04:23:11;;;;;;;9.48;5.10;;;6.40;94.60;;;;;;5091685;28;20211;-62
2024/03/19 04:25:37;;;;;;;6.53;4.35;;;6.40;94.70;;;;;;5095767;28;20208;-62
2024/03/19 04:28:05;;;;;;;5.72;4.45;;;6.30;94.90;;;;;;5098491;28;20208;-62
2024/03/19 04:30:33;;;;;;;4.70;3.83;;;6.20;95.20;;;;;;5093918;28;20224;-62
2024/03/19 04:32:59;;;;;;;6.50;4.13;;;6.20;95.50;;;;;;5093314;28;20235;-62
2024/03/19 04:35:26;;;;;;;6.90;5.03;;;6.10;95.80;;;;;;5094668;28;20207;-62
2024/03/19 04:37:53;;;;;;;6.10;4.28;;;6.00;96.10;;;;;;5093451;28;20201;-61
2024/03/19 04:40:21;;;;;;;5.63;4.63;;;5.90;96.40;;;;;;5091959;28;20216;-63
2024/03/19 04:42:48;;;;;;;4.90;4.05;;;5.90;96.70;;;;;;5091160;28;20666;-62
2024/03/19 04:45:15;;;;;;;4.65;4.15;;;5.80;97.00;;;;;;5092023;28;20231;-62
2024/03/19 04:47:43;;;;;;;5.65;4.60;;;5.70;97.30;;;;;;5092379;28;20200;-62
2024/03/19 04:50:10;;;;;;;7.50;4.90;;;5.70;97.50;;;;;;5092198;28;20227;-62
2024/03/19 04:52:37;;;;;;;6.10;4.60;;;5.60;97.80;;;;;;5091829;28;20220;-63
2024/03/19 04:55:04;;;;;;;5.03;3.95;;;5.60;98.00;;;;;;5092154;28;20201;-62
2024/03/19 04:57:33;;;;;;;5.68;4.10;;;5.60;98.30;;;;;;5092387;28;20530;-62
2024/03/19 05:00:00;;;;;;;4.68;4.18;;;5.50;98.40;;;;;;5092620;28;20391;-62
2024/03/19 05:02:26;;;;;;;5.80;4.78;;;5.50;98.60;;;;;;5099003;22;20331;-60
2024/03/19 05:04:54;;;;;;;5.22;4.05;;;5.40;98.80;;;;;;5069706;28;20557;-60
2024/03/19 05:07:21;;;;;;;4.53;4.13;;;5.40;99.10;;;;;;5069107;28;20212;-59
2024/03/19 05:09:48;;;;;;;4.57;4.13;;;5.30;99.30;;;;;;5069346;28;20201;-59
2024/03/19 05:12:15;;;;;;;7.95;4.68;;;5.30;99.50;;;;;;5068830;28;20228;-59
2024/03/19 05:14:41;;;;;;;5.63;4.32;;;5.30;99.70;;;;;;5069337;28;20679;-59
2024/03/19 05:17:08;;;;;;;8.35;5.30;;;5.20;99.90;;;;;;5069659;28;20201;-59
2024/03/19 05:19:35;;;;;;;5.80;5.20;;;5.20;99.90;;;;;;5069312;28;20209;-60
2024/03/19 05:22:03;;;;;;;5.50;4.78;;;5.20;99.90;;;;;;5069192;28;20217;-59
2024/03/19 05:24:30;;;;;;;8.10;5.63;;;5.20;99.90;;;;;;5057435;28;20202;-59
2024/03/19 05:26:57;;;;;;;5.57;4.90;;;5.10;99.90;;;;;;5055737;28;20202;-60
2024/03/19 05:29:24;;;;;;;5.78;4.95;;;5.10;99.90;;;;;;5056122;28;20213;-59
2024/03/19 05:31:50;;;;;;;7.43;5.20;;;5.10;99.90;;;;;;5055385;28;20773;-58
2024/03/19 05:34:17;;;;;;;6.50;4.70;;;5.10;99.90;;;;;;5057404;28;20213;-59
2024/03/19 05:36:44;;;;;;;9.75;5.00;;;5.10;99.90;;;;;;5056914;28;20207;-59
2024/03/19 05:39:12;;;;;;;6.75;4.95;;;5.10;99.90;;;;;;5055689;28;20214;-60
2024/03/19 05:41:38;;;;;;;5.70;4.97;;;5.10;99.90;;;;;;5055176;28;20226;-59
2024/03/19 05:44:07;;;;;;;8.57;5.30;;;5.00;99.90;;;;;;5055827;28;20197;-58
2024/03/19 05:46:34;;;;;;;7.53;5.60;;;5.10;99.90;;;;;;5056394;28;21005;-60
2024/03/19 05:49:01;;;;;;;6.85;6.15;;;5.10;99.90;;;;;;5055451;28;20208;-60
2024/03/19 05:51:27;;;;;;;12.77;5.50;;;5.10;99.90;;;;;;5054692;28;20245;-59
2024/03/19 05:53:54;;;;;;;6.18;5.03;;;5.10;99.90;;;;;;5056511;28;20586;-60
2024/03/19 05:56:23;;;;;;;8.30;5.25;;;5.20;99.90;;;;;;5057344;28;20213;-59
2024/03/19 05:58:49;;;;;;;6.68;5.70;;;5.20;99.90;;;;;;5055602;28;20202;-59
2024/03/19 06:01:18;;;;;;;8.23;4.80;;;5.20;99.90;;;;;;5054684;28;20237;-59
2024/03/19 06:03:45;;;;;;;5.78;5.03;;;5.30;99.90;;;;;;5054562;28;20257;-59
2024/03/19 06:06:11;;;;;;;6.78;5.13;;;5.30;99.90;;;;;;5055064;28;20235;-59
2024/03/19 06:08:40;;;;;;;7.80;5.45;;;5.30;99.90;;;;;;5055363;28;20205;-59
2024/03/19 06:11:08;;;;;;;8.07;5.20;;;5.30;99.90;;;;;;5054777;28;20351;-59
2024/03/19 06:13:36;;;;;;;7.15;5.15;;;5.30;99.90;;;;;;5054715;28;20221;-59
2024/03/19 06:16:05;;;;;;;9.57;5.65;;;5.40;99.90;;;;;;5054758;28;20205;-59
2024/03/19 06:18:31;;;;;;;5.93;4.55;;;5.40;99.90;;;;;;5055060;28;20205;-59
2024/03/19 06:20:58;;;;;;;6.13;5.53;;;5.40;99.90;;;;;;5054711;28;20205;-60
2024/03/19 06:23:25;;;;;;;5.20;4.70;;;5.50;99.90;;;;;;5054695;28;20672;-59
2024/03/19 06:25:52;;;;;;;9.45;5.70;;;5.50;99.90;;;;;;5054600;28;20198;-59
2024/03/19 06:28:19;;;;;;;7.28;5.32;;;5.60;99.90;;;;;;5054564;28;20575;-59
2024/03/19 06:30:47;;;;;;;7.03;5.20;;;5.60;99.90;;;;;;5054187;28;20217;-59
2024/03/19 06:33:14;;;;;;;7.03;5.18;;;5.70;99.90;;;;;;5053983;28;20707;-59
2024/03/19 06:35:41;;;;;;;7.30;4.95;;;5.80;99.90;;;;;;5053408;28;20202;-59
2024/03/19 06:38:08;;;;;;;10.30;6.20;;;5.90;99.90;;;;;;5054425;28;20198;-59
2024/03/19 06:40:35;;;;;;;7.93;5.20;;;6.00;99.90;;;;;;5054109;28;20209;-60
2024/03/19 06:43:02;;;;;;;7.75;5.25;;;6.10;99.90;;;;;;5053944;28;20218;-60
2024/03/19 06:45:29;;;;;;;6.43;5.10;;;6.20;99.90;;;;;;5055399;28;20569;-59
2024/03/19 06:47:58;;;;;;;7.53;5.55;;;6.30;99.90;;;;;;5054011;28;20198;-60
2024/03/19 06:50:25;;;;;;;6.95;5.45;;;6.30;99.90;;;;;;5053741;28;20251;-59
2024/03/19 06:52:52;;;;;;;6.75;5.70;;;6.40;99.90;;;;;;5053982;28;20225;-59
2024/03/19 06:55:20;;;;;;;9.52;5.63;;;6.40;99.90;;;;;;5054235;28;20205;-58
2024/03/19 06:57:47;;;;;;;7.88;5.05;;;6.50;99.90;;;;;;5053677;28;20201;-59
2024/03/19 07:00:14;;;;;;;5.90;4.55;;;6.50;99.90;;;;;;5053798;28;20786;-58
2024/03/19 07:02:42;;;;;;;14.02;6.88;;;6.60;99.60;;;;;;5054416;28;20225;-59
2024/03/19 07:05:12;;;;;;;9.10;6.03;;;6.60;99.50;;;;;;5053510;28;20493;-58
2024/03/19 07:07:39;;;;;;;5.38;4.50;;;6.60;99.20;;;;;;5054803;28;20448;-56
2024/03/19 07:10:07;;;;;;;8.63;5.90;;;6.70;99.00;;;;;;5055205;28;20436;-58
2024/03/19 07:12:34;;;;;;;5.57;4.97;;;6.70;98.80;;;;;;5055200;28;20228;-59
2024/03/19 07:15:04;;;;;;;6.25;5.45;;;6.80;98.80;;;;;;5054237;28;20206;-58
2024/03/19 07:17:31;;;;;;;6.53;5.60;;;6.90;98.50;;;;;;5054095;28;20199;-60
2024/03/19 07:19:58;;;;;;;7.47;5.45;;;7.00;98.30;;;;;;5053770;28;20298;-59
2024/03/19 07:22:28;;;;;;;6.80;5.63;;;7.20;97.90;;;;;;5054084;28;20280;-58
2024/03/19 07:24:55;;;;;;;5.95;5.05;;;7.40;97.40;;;;;;5054512;28;20668;-58
2024/03/19 07:27:21;;;;;;;8.82;5.40;;;7.60;97.00;;;;;;5053507;28;20217;-58
2024/03/19 07:29:48;;;;;;;11.07;7.18;;;7.80;96.40;;;;;;5054475;28;20222;-58
2024/03/19 07:32:15;;;;;;;7.78;5.45;;;8.00;95.60;;;;;;5053097;28;20229;-57
2024/03/19 07:34:41;;;;;;;7.72;6.00;;;8.20;94.80;;;;;;5053243;28;20231;-59
2024/03/19 07:37:10;;;;;;;7.85;6.10;;;8.30;94.30;;;;;;5055085;28;20211;-58
2024/03/19 07:39:38;;;;;;;6.30;5.57;;;8.40;93.50;;;;;;5054792;28;20547;-58
2024/03/19 07:42:05;;;;;;;7.63;5.30;;;8.50;93.10;;;;;;5054944;28;20715;-57
2024/03/19 07:44:32;;;;;;;7.83;6.03;;;8.60;92.60;;;;;;5054551;28;20967;-59
2024/03/19 07:46:58;;;;;;;8.63;6.37;;;8.60;92.10;;;;;;5056049;28;20441;-59
2024/03/19 07:49:25;;;;;;;7.80;6.40;;;8.70;91.90;;;;;;5055189;28;20964;-57
2024/03/19 07:51:52;;;;;;;8.03;6.07;;;8.80;91.50;;;;;;5055152;28;20219;-57
2024/03/19 07:54:22;;;;;;;7.87;6.20;;;8.90;91.10;;;;;;5054650;28;20581;-58
2024/03/19 07:56:51;;;;;;;7.90;6.30;;;9.00;90.70;;;;;;5053847;28;20445;-59
2024/03/19 07:59:17;;;;;;;10.07;6.33;;;9.00;90.40;;;;;;5052680;28;20547;-58
2024/03/19 08:01:44;;;;;;;8.83;6.50;;;9.20;90.10;;;;;;5052640;28;20494;-59
2024/03/19 08:04:11;;;;;;;9.97;6.90;;;9.30;89.50;;;;;;5053072;28;20442;-59
2024/03/19 08:06:37;;;;;;;9.70;6.73;;;9.40;88.80;;;;;;5053900;28;20443;-59
2024/03/19 08:09:04;;;;;;;16.00;7.43;;;9.60;87.90;;;;;;5053246;28;20551;-58
2024/03/19 08:11:31;;;;;;;11.63;7.53;;;9.80;87.30;;;;;;5053260;28;20878;-58
2024/03/19 08:13:59;;;;;;;12.27;8.07;;;10.00;84.50;;;;;;5053244;28;20491;-58
2024/03/19 08:16:26;;;;;;;10.50;7.47;;;10.20;83.30;;;;;;5052467;28;20440;-57
2024/03/19 08:18:53;;;;;;;7.90;6.97;;;10.50;82.20;;;;;;5052795;28;20444;-58
2024/03/19 08:21:21;;;;;;;10.47;8.67;;;10.70;80.60;;;;;;5052852;28;20468;-57
2024/03/19 08:23:48;;;;;;;10.57;7.87;;;10.80;79.10;;;;;;5053119;28;20440;-59
2024/03/19 08:26:14;;;;;;;10.50;7.80;;;10.80;78.60;;;;;;5052104;28;20450;-59
2024/03/19 08:28:41;;;;;;;11.53;7.97;;;10.90;78.40;;;;;;5052599;28;20451;-59
2024/03/19 08:31:10;;;;;;;11.63;8.30;;;11.00;78.10;;;;;;5052605;28;20521;-59
2024/03/19 08:33:37;;;;;;;12.53;7.70;;;11.00;77.40;;;;;;5052933;28;20472;-59
2024/03/19 08:36:04;;;;;;;10.47;8.67;;;11.10;77.40;;;;;;5052897;28;21010;-59
2024/03/19 08:38:31;;;;;;;11.70;8.20;;;11.10;77.10;;;;;;5052971;28;20823;-60
2024/03/19 08:40:58;;;;;;;10.63;8.55;;;11.20;77.20;;;;;;5052567;28;20435;-59
2024/03/19 08:43:25;;;;;;;12.77;9.10;;;11.20;77.40;;;;;;5052740;28;20273;-58
2024/03/19 08:45:52;;;;;;;11.87;9.50;;;11.40;77.40;;;;;;5052948;28;20454;-59
2024/03/19 08:48:20;;;;;;;16.20;8.70;;;11.50;76.90;;;;;;5052492;28;20780;-59
2024/03/19 08:50:47;;;;;;;11.83;9.20;;;11.60;76.50;;;;;;5052239;28;20440;-59
2024/03/19 08:53:14;;;;;;;12.50;9.60;;;11.60;76.50;;;;;;5052269;28;20935;-59
2024/03/19 08:55:42;;;;;;;12.20;9.80;;;11.70;76.50;;;;;;5052496;28;20814;-58
2024/03/19 08:58:09;;;;;;;21.03;10.17;;;11.70;76.50;;;;;;5053139;28;20448;-58
2024/03/19 09:00:39;;;;;;;11.97;9.07;;;11.80;76.70;;;;;;5057035;28;20444;-59
2024/03/19 09:03:08;;;;;;;13.77;9.93;;;11.80;76.90;;;;;;5056627;28;20550;-59
2024/03/19 09:05:36;;;;;;;15.90;10.40;;;11.80;77.10;;;;;;5056829;28;20449;-59
2024/03/19 09:08:03;;;;;;;13.90;9.23;;;11.80;77.30;;;;;;5056924;28;20801;-59
2024/03/19 09:10:30;;;;;;;17.03;10.50;;;11.90;77.70;;;;;;5056810;28;20445;-60
2024/03/19 09:12:57;;;;;;;15.10;10.17;;;12.10;77.80;;;;;;5056713;28;20490;-58
2024/03/19 09:15:26;;;;;;;16.33;11.23;;;12.30;77.40;;;;;;5057029;28;20448;-59
2024/03/19 09:17:54;;;;;;;13.77;10.13;;;12.50;76.90;;;;;;5056703;28;20498;-59
2024/03/19 09:20:22;;;;;;;14.80;11.73;;;12.50;76.20;;;;;;5056111;28;20958;-60
2024/03/19 09:22:50;;;;;;;17.10;11.27;;;12.60;76.70;;;;;;5056114;28;20461;-59
2024/03/19 09:25:16;;;;;;;16.77;10.73;;;12.80;76.70;;;;;;5055443;28;20453;-59
2024/03/19 09:27:43;;;;;;;20.00;11.23;;;13.00;76.10;;;;;;5055784;28;20455;-60
2024/03/19 09:30:12;;;;;;;15.73;11.87;;;13.20;75.40;;;;;;5055667;28;20464;-60
2024/03/19 09:32:39;;;;;;;14.47;11.03;;;13.30;74.90;;;;;;5055483;28;20495;-60
2024/03/19 09:35:07;;;;;;;16.00;11.23;;;13.50;74.60;;;;;;5055561;28;20449;-59
2024/03/19 09:37:33;;;;;;;16.60;12.70;;;13.50;74.00;;;;;;5056648;28;20446;-60
2024/03/19 09:40:01;;;;;;;17.40;12.50;;;13.60;74.20;;;;;;5056915;28;20443;-61
2024/03/19 09:42:28;;;;;;;18.87;13.47;;;13.70;74.00;;;;;;5055646;28;20546;-59
2024/03/19 09:44:55;;;;;;;15.83;11.73;;;13.70;74.20;;;;;;5055571;28;20777;-60
2024/03/19 09:47:22;;;;;;;18.10;12.70;;;13.80;74.40;;;;;;5055823;28;20815;-60
2024/03/19 09:49:49;;;;;;;20.17;13.17;;;13.80;74.60;;;;;;5059307;28;20481;-59
2024/03/19 09:52:16;;;;;;;20.37;13.93;;;13.80;75.00;;;;;;5058560;28;20470;-59
2024/03/19 09:54:44;;;;;;;17.10;13.10;;;13.90;75.30;;;;;;5057281;28;20482;-59
2024/03/19 09:57:14;;;;;;;19.33;13.73;;;14.00;75.40;;;;;;5056951;28;20439;-58
2024/03/19 09:59:41;;;;;;;19.27;14.10;;;14.00;75.00;;;;;;5056638;28;20434;-59
2024/03/19 10:02:15;;;;;;;22.37;14.17;;;13.80;75.60;;;;;;5056368;28;20479;-58
2024/03/19 10:04:45;;;;;;;24.97;15.77;;;13.80;76.90;;;;;;5056800;28;20428;-59
2024/03/19 10:07:13;;;;;;;21.93;14.80;;;13.80;77.10;;;;;;5056913;28;20537;-58
2024/03/19 10:09:39;;;;;;;20.67;15.60;;;13.60;77.60;;;;;;5055922;28;20791;-59
2024/03/19 10:12:08;;;;;;;20.20;13.70;;;13.60;79.00;;;;;;5055091;28;20849;-60
2024/03/19 10:14:36;;;;;;;17.83;12.80;;;13.70;79.50;;;;;;5056928;28;20479;-60
2024/03/19 10:17:03;;;;;;;20.27;13.77;;;14.00;79.40;;;;;;5059550;28;20439;-60
2024/03/19 10:19:30;;;;;;;21.60;14.93;;;14.10;78.70;;;;;;5059779;28;20494;-59
2024/03/19 10:21:57;;;;;;;26.83;16.90;;;14.30;78.20;;;;;;5059909;28;20474;-59
2024/03/19 10:24:24;;;;;;;19.43;13.60;;;14.30;77.40;;;;;;5060700;28;20435;-59
2024/03/19 10:26:51;;;;;;;26.07;15.17;;;14.40;77.50;;;;;;5058972;28;20440;-60
2024/03/19 10:29:18;;;;;;;22.50;16.67;;;14.50;77.10;;;;;;5058735;28;20524;-59
2024/03/19 10:31:48;;;;;;;22.60;14.80;;;14.70;76.70;;;;;;5054764;28;20467;-59
2024/03/19 10:34:18;;;;;;;22.00;14.10;;;14.80;76.20;;;;;;5055172;28;20508;-59
2024/03/19 10:36:48;;;;;;;21.03;14.97;;;15.00;75.30;;;;;;5055329;28;20424;-59
2024/03/19 10:39:16;;;;;;;21.10;15.27;;;15.10;74.60;;;;;;5055960;28;20567;-58
2024/03/19 10:41:43;;;;;;;20.43;14.57;;;15.20;74.10;;;;;;5056086;28;20494;-60
2024/03/19 10:44:15;;;;;;;21.47;15.70;;;15.30;73.80;;;;;;5055541;28;20436;-59
2024/03/19 10:46:42;;;;;;;24.17;15.73;;;15.30;72.70;;;;;;5054758;28;20427;-59
2024/03/19 10:49:15;;;;;;;20.60;14.33;;;15.30;72.80;;;;;;5054877;28;20455;-60
2024/03/19 10:51:42;;;;;;;16.30;12.70;;;15.10;72.90;;;;;;5054540;28;20519;-60
2024/03/19 10:54:10;;;;;;;21.60;15.23;;;15.10;73.20;;;;;;5054266;28;20867;-60
2024/03/19 10:56:37;;;;;;;19.80;14.77;;;15.10;73.40;;;;;;5054214;28;20452;-61
2024/03/19 10:59:04;;;;;;;20.40;14.70;;;15.20;73.10;;;;;;5054103;28;20440;-59
2024/03/19 11:01:32;;;;;;;20.57;13.73;;;15.30;72.70;;;;;;5053721;28;20484;-60
2024/03/19 11:04:03;;;;;;;17.80;12.67;;;15.50;73.10;;;;;;5053974;28;20457;-61
2024/03/19 11:06:33;;;;;;;22.37;14.60;;;15.60;71.60;;;;;;5053623;28;20808;-60
2024/03/19 11:08:59;;;;;;;28.17;19.47;;;15.70;71.30;;;;;;5054022;28;20491;-61
2024/03/19 11:11:35;;;;;;;31.10;22.10;;;15.70;70.90;;;;;;5053359;28;20472;-59
2024/03/19 11:14:02;;;;;;;24.80;17.17;;;15.80;70.60;;;;;;5053708;28;20513;-59
2024/03/19 11:16:38;;;;;;;25.20;16.47;;;15.80;70.40;;;;;;5053379;28;20467;-59
2024/03/19 11:19:20;;;;;;;21.97;15.00;;;15.80;70.20;;;;;;5053344;28;20424;-58
2024/03/19 11:21:49;;;;;;;20.53;14.37;;;15.80;69.60;;;;;;5053075;28;20548;-60
2024/03/19 11:24:24;;;;;;;22.00;13.50;;;15.50;69.70;;;;;;5053138;28;20453;-62
2024/03/19 11:26:54;;;;;;;21.13;13.60;;;15.50;70.70;;;;;;5053083;28;20436;-60
2024/03/19 11:29:23;;;;;;;21.80;14.13;;;15.60;70.80;;;;;;5053127;28;20492;-62
2024/03/19 11:31:50;;;;;;;18.97;13.97;;;15.80;70.40;;;;;;5052978;28;20484;-60
2024/03/19 11:34:18;;;;;;;18.23;12.80;;;16.00;70.00;;;;;;5053322;28;20487;-61
2024/03/19 11:36:48;;;;;;;19.93;14.07;;;16.10;69.40;;;;;;5053584;28;20457;-61
2024/03/19 11:39:15;;;;;;;16.43;13.00;;;16.30;68.90;;;;;;5053284;28;20437;-61
2024/03/19 11:41:43;;;;;;;20.00;14.03;;;16.40;68.20;;;;;;5052928;28;20520;-61
2024/03/19 11:44:14;;;;;;;22.40;14.07;;;16.50;67.90;;;;;;5052616;28;20458;-60
2024/03/19 11:46:41;;;;;;;21.50;12.73;;;16.60;67.10;;;;;;5053080;28;20477;-61
2024/03/19 11:49:23;;;;;;;17.60;13.77;;;16.70;66.60;;;;;;5052864;28;20854;-60
2024/03/19 11:51:59;;;;;;;21.70;13.53;;;16.80;65.90;;;;;;5052855;28;20459;-60
2024/03/19 11:54:26;;;;;;;22.60;13.93;;;16.80;65.30;;;;;;5052686;28;20482;-60
2024/03/19 11:56:54;;;;;;;18.27;14.20;;;16.80;64.60;;;;;;5053102;28;20501;-60
2024/03/19 11:59:23;;;;;;;19.67;13.13;;;16.70;64.80;;;;;;5054943;28;20450;-62
2024/03/19 12:01:51;;;;;;;17.43;12.93;;;16.70;65.10;;;;;;5054915;28;20471;-60
2024/03/19 12:04:18;;;;;;;15.90;12.13;;;16.80;65.00;;;;;;5055013;28;20535;-60
2024/03/19 12:06:46;;;;;;;18.47;13.33;;;17.00;64.50;;;;;;5052870;28;20439;-61
2024/03/19 12:09:14;;;;;;;22.87;14.67;;;17.20;64.10;;;;;;5052680;28;20914;-61
2024/03/19 12:11:41;;;;;;;16.93;12.27;;;17.30;63.50;;;;;;5052762;28;20471;-60
2024/03/19 12:14:13;;;;;;;22.73;14.30;;;17.30;63.10;;;;;;5052505;28;20481;-61
2024/03/19 12:16:40;;;;;;;17.63;12.83;;;17.40;62.90;;;;;;5052862;28;20494;-61
2024/03/19 12:19:11;;;;;;;20.40;12.00;;;17.50;62.70;;;;;;5054223;28;20441;-61
2024/03/19 12:21:39;;;;;;;18.50;12.33;;;17.60;62.30;;;;;;5054033;28;20457;-60
2024/03/19 12:24:09;;;;;;;17.60;13.20;;;17.70;62.00;;;;;;5055476;28;20447;-60
2024/03/19 12:26:39;;;;;;;29.03;14.90;;;17.70;61.70;;;;;;5053687;28;20533;-60
2024/03/19 12:29:06;;;;;;;17.83;13.30;;;17.80;61.40;;;;;;5052794;28;20448;-61
2024/03/19 12:31:37;;;;;;;19.70;13.20;;;17.80;60.90;;;;;;5051867;28;20970;-61
2024/03/19 12:34:16;;;;;;;19.33;14.20;;;17.80;60.80;;;;;;5054167;28;20885;-61
2024/03/19 12:36:44;;;;;;;17.97;13.50;;;17.80;60.60;;;;;;5056849;28;20456;-61
2024/03/19 12:39:12;;;;;;;15.30;11.50;;;17.80;60.20;;;;;;5056476;28;20463;-60
2024/03/19 12:41:40;;;;;;;19.23;12.83;;;17.80;60.10;;;;;;5057547;28;20469;-61
2024/03/19 12:44:08;;;;;;;18.13;12.70;;;17.90;60.10;;;;;;5057093;28;20460;-60
2024/03/19 12:46:36;;;;;;;17.50;11.70;;;18.00;60.50;;;;;;5056394;28;20805;-60
2024/03/19 12:49:03;;;;;;;15.93;12.30;;;18.00;59.70;;;;;;5057092;28;20450;-60
2024/03/19 12:51:30;;;;;;;18.80;13.33;;;18.10;59.70;;;;;;5058060;28;20583;-61